METAR Data
IDs: Format: Raw Decoded Include TAF

Data at: 1210 UTC 16 Oct 2018

PABI 161153Z AUTO 11025G31KT 10SM CLR 05/01 A2938 RMK AO2 PK WND 11037/1111 SLP964 60000 T00500011 10050 20044 56016 TSNO
PABI 161053Z AUTO 11028G38KT 10SM CLR 05/01 A2940 RMK AO2 PK WND 11040/1016 SLP968 T00500011 TSNO
PABI 160953Z AUTO 10029G41KT 10SM CLR 05/01 A2941 RMK AO2 PK WND 10041/0945 RAB34E42 SLP973 P0000 T00500011 TSNO
PABI 160853Z AUTO 10028G39KT 10SM CLR 05/01 A2943 RMK AO2 PK WND 10039/0817 SLP982 60000 T00500011 400561022 56028 TSNO
PABI 160753Z AUTO 10028G35KT 10SM FEW110 05/01 A2947 RMK AO2 PK WND 11037/0701 RAB35E39 SLP995 P0000 T00500011 TSNO
PABI 160653Z AUTO 11028G39KT 10SM SCT110 05/01 A2947 RMK AO2 PK WND 10039/0646 RAB43E52 SLP996 P0000 T00500011 TSNO
PABI 160553Z AUTO 11018G26KT 10SM FEW070 BKN085 OVC100 05/01 A2952 RMK AO2 PK WND 09028/0541 SLP014 60000 T00500011 10050 20050 58016 TSNO
PABI 160453Z 09018G29KT 10SM OVC075 05/02 A2954 RMK AO2 PK WND 10033/0441 SLP021 SHSN DSNT S-SW T00500017
PABI 160353Z 11026G33KT 10SM FEW075 SCT100 SCT120 OVC150 05/01 A2955 RMK AO2 PK WND 10036/0307 SLP025 SHSN DSNT S-SW T00500011
PABI 160253Z 11021G33KT 10SM FEW060 BKN085 OVC100 05/01 A2957 RMK AO2 PK WND 09039/0228 SLP031 SHSN DSNT S-SW 60000 T00500011 56018
PABI 160153Z 10025G35KT 10SM FEW060 OVC080 05/01 A2957 RMK AO2 PK WND 12037/0132 RAB0054E44 SLP033 P0000 T00500011
PABI 160053Z 10023G35KT 10SM SCT070 SCT130 BKN160 BKN200 05/01 A2958 RMK AO2 PK WND 11035/0050 SLP036 T00500011
PABI 152353Z 11027G34KT 10SM SCT065 SCT130 BKN160 BKN200 05/01 A2963 RMK AO2 PK WND 11044/2254 SLP050 T00500006 10056 20017 56013
PABI 152253Z 11031G40KT 10SM SCT065 SCT130 BKN160 BKN200 06/00 A2964 RMK AO2 PK WND 11040/2246 SLP054 T00560000
PABI 152153Z 10027G36KT 10SM SCT065 SCT130 BKN160 BKN200 04/M01 A2965 RMK AO2 PK WND 10037/2143 SLP060 T00441006
PABI 152053Z 11025G32KT 10SM SCT065 SCT130 BKN160 BKN200 04/M01 A2967 RMK AO2 PK WND 11034/2010 SLP064 ACSL DSNT ALQDS T00391006 56019
PABI 151953Z 11025G33KT 10SM SCT065 SCT130 BKN200 03/M01 A2967 RMK AO2 PK WND 11033/1952 SLP067 ACSL DSNT ALQDS T00331011
PABI 151853Z 11017G29KT 10SM FEW065 SCT130 BKN200 02/M01 A2969 RMK AO2 PK WND 10030/1802 SLP075 ACSL DSNT S CIG THN T00221011
PABI 151753Z 10020G28KT 10SM FEW065 SCT130 BKN200 02/M02 A2972 RMK AO2 PK WND 10028/1745 SLP085 CIG THN T00171017 10017 21006 58008
PABI 151653Z 11018KT 10SM FEW200 01/M02 A2974 RMK AO2 PK WND 10027/1616 SLP091 T00111017
PABI 151553Z 11015G22KT 10SM FEW200 01/M02 A2975 RMK AO2 SLP095 T00111017
PABI 151453Z 11015KT 10SM SCT200 01/M02 A2975 RMK AO2 SLP095 T00061017 56010 $
PABI 151353Z 12010KT 10SM SCT200 01/M02 A2976 RMK AO2 SLP097 T00061017 /
PABI 151253Z AUTO 12010KT 10SM CLR 01/M01 A2976 RMK AO2 SLP097 T00061011 TSNO $
PABI 151153Z AUTO 12012KT 10SM CLR M01/M02 A2978 RMK AO2 SLP104 T10061017 10017 21022 58005 TSNO $
PABI 151053Z AUTO 10003KT 10SM CLR M01/M02 A2979 RMK AO2 SLP109 T10111017 TSNO $
PABI 150953Z AUTO 16006KT 10SM CLR M01/M01 A2980 RMK AO2 SLP113 T10061011 TSNO $
PABI 150853Z AUTO 11008KT 10SM CLR 00/M01 A2980 RMK AO2 SLP113 T00001006 400331028 56004 TSNO $
PABI 150753Z AUTO 12005KT 10SM CLR 01/M01 A2980 RMK AO2 SLP114 T00061006 TSNO $
PABI 150653Z AUTO 03005KT 10SM CLR M01/M01 A2980 RMK AO2 SLP115 T10061006 TSNO $
PABI 150553Z AUTO 12006KT 10SM CLR 01/00 A2981 RMK AO2 SLP118 T00110000 10033 20006 56004 TSNO $
PABI 150453Z 14008KT 10SM SCT180 BKN200 01/01 A2982 RMK AO2 SLP121 T00110006 $
PABI 150353Z 09007KT 10SM SCT180 BKN200 01/01 A2981 RMK AO2 SLP119 T00060006 $
PABI 150253Z 09004KT 10SM FEW015 SCT180 BKN200 02/01 A2982 RMK AO2 SLP122 FG DSNT SW T00170011 56022 /
PABI 150153Z 08006KT 10SM FEW015 SCT180 BKN200 03/02 A2983 RMK AO2 SLP124 FG DSNT SW T00280022 $
PABI 150053Z 09005KT 10SM FEW015 BKN200 03/03 A2986 RMK AO2 SLP130 FG DSNT S-SE AND NW T00330033 $